Aviation Digital Data Service (ADDS)

Output produced by METARs form (1340 UTC 14 December 2019)
found at http://www.aviationweather.gov/metar/data/
 
METAR text: KMSY 141253Z 00000KT 1/8SM FG VV002 12/11 A2988 RMK AO2 SLP122 T01170106 RVRNO
Conditions at: KMSY (NEW ORLEANS/INTL, LA, US) observed 1253 UTC 14 December 2019
Temperature: 11.7°C (53°F)
Dewpoint: 10.6°C (51°F) [RH = 93%]
Pressure (altimeter): 29.88 inches Hg (1011.9 mb)
[Sea-level pressure: 1012.2 mb]
Winds: calm
Visibility: 0.13 miles (0.21 km)
Ceiling: indefinite ceiling with vertical visibility of 200 feet AGL
Clouds: obscured sky
Weather: FG  (fog)

METAR text: KMSY 141221Z 11004KT 1/4SM FG VV002 12/11 A2987 RMK AO2 T01170106 RVRNO
Conditions at: KMSY (NEW ORLEANS/INTL, LA, US) observed 1221 UTC 14 December 2019
Temperature: 11.7°C (53°F)
Dewpoint: 10.6°C (51°F) [RH = 93%]
Pressure (altimeter): 29.87 inches Hg (1011.6 mb)
Winds: from the ESE (110 degrees) at 5 MPH (4 knots; 2.1 m/s)
Visibility: 0.25 miles (0.40 km)
Ceiling: indefinite ceiling with vertical visibility of 200 feet AGL
Clouds: obscured sky
Weather: FG  (fog)

METAR text: KMSY 141153Z 13005KT 1/2SM FG VV002 12/11 A2986 RMK AO2 SLP115 70001 T01170106 10117 20100 50004 RVRNO
Conditions at: KMSY (NEW ORLEANS/INTL, LA, US) observed 1153 UTC 14 December 2019
Temperature: 11.7°C (53°F)
Dewpoint: 10.6°C (51°F) [RH = 93%]
Pressure (altimeter): 29.86 inches Hg (1011.3 mb)
[Sea-level pressure: 1011.5 mb]
Winds: from the SE (130 degrees) at 6 MPH (5 knots; 2.6 m/s)
Visibility: 0.50 miles (0.80 km)
Ceiling: indefinite ceiling with vertical visibility of 200 feet AGL
Clouds: obscured sky
Weather: FG  (fog)

METAR text: KMSY 141128Z 00000KT 1/4SM FG VV002 12/11 A2987 RMK AO2 T01170106 RVRNO
Conditions at: KMSY (NEW ORLEANS/INTL, LA, US) observed 1128 UTC 14 December 2019
Temperature: 11.7°C (53°F)
Dewpoint: 10.6°C (51°F) [RH = 93%]
Pressure (altimeter): 29.87 inches Hg (1011.6 mb)
Winds: calm
Visibility: 0.25 miles (0.40 km)
Ceiling: indefinite ceiling with vertical visibility of 200 feet AGL
Clouds: obscured sky
Weather: FG  (fog)

METAR text: KMSY 141102Z 00000KT 1/4SM FG VV003 12/11 A2987 RMK AO2 T01170106 RVRNO
Conditions at: KMSY (NEW ORLEANS/INTL, LA, US) observed 1102 UTC 14 December 2019
Temperature: 11.7°C (53°F)
Dewpoint: 10.6°C (51°F) [RH = 93%]
Pressure (altimeter): 29.87 inches Hg (1011.6 mb)
Winds: calm
Visibility: 0.25 miles (0.40 km)
Ceiling: indefinite ceiling with vertical visibility of 300 feet AGL
Clouds: obscured sky
Weather: FG  (fog)

METAR text: KMSY 141053Z 00000KT 1/4SM FG VV002 12/11 A2988 RMK AO2 SLP120 T01170106 RVRNO
Conditions at: KMSY (NEW ORLEANS/INTL, LA, US) observed 1053 UTC 14 December 2019
Temperature: 11.7°C (53°F)
Dewpoint: 10.6°C (51°F) [RH = 93%]
Pressure (altimeter): 29.88 inches Hg (1011.9 mb)
[Sea-level pressure: 1012.0 mb]
Winds: calm
Visibility: 0.25 miles (0.40 km)
Ceiling: indefinite ceiling with vertical visibility of 200 feet AGL
Clouds: obscured sky
Weather: FG  (fog)

METAR text: KMSY 140953Z 15003KT 1/4SM FG VV002 11/10 A2984 RMK AO2 SLP108 T01110100 RVRNO
Conditions at: KMSY (NEW ORLEANS/INTL, LA, US) observed 0953 UTC 14 December 2019
Temperature: 11.1°C (52°F)
Dewpoint: 10.0°C (50°F) [RH = 93%]
Pressure (altimeter): 29.84 inches Hg (1010.6 mb)
[Sea-level pressure: 1010.8 mb]
Winds: from the SSE (150 degrees) at 3 MPH (3 knots; 1.5 m/s)
Visibility: 0.25 miles (0.40 km)
Ceiling: indefinite ceiling with vertical visibility of 200 feet AGL
Clouds: obscured sky
Weather: FG  (fog)

METAR text: KMSY 140853Z 00000KT 1/8SM FG VV002 11/10 A2985 RMK AO2 SLP110 T01110100 50004 RVRNO
Conditions at: KMSY (NEW ORLEANS/INTL, LA, US) observed 0853 UTC 14 December 2019
Temperature: 11.1°C (52°F)
Dewpoint: 10.0°C (50°F) [RH = 93%]
Pressure (altimeter): 29.85 inches Hg (1010.9 mb)
[Sea-level pressure: 1011.0 mb]
Winds: calm
Visibility: 0.13 miles (0.21 km)
Ceiling: indefinite ceiling with vertical visibility of 200 feet AGL
Clouds: obscured sky
Weather: FG  (fog)

METAR text: KMSY 140753Z 16004KT 1/4SM FG VV002 11/09 A2985 RMK AO2 SLP112 T01060094 RVRNO
Conditions at: KMSY (NEW ORLEANS/INTL, LA, US) observed 0753 UTC 14 December 2019
Temperature: 10.6°C (51°F)
Dewpoint: 9.4°C (49°F) [RH = 92%]
Pressure (altimeter): 29.85 inches Hg (1010.9 mb)
[Sea-level pressure: 1011.2 mb]
Winds: from the SSE (160 degrees) at 5 MPH (4 knots; 2.1 m/s)
Visibility: 0.25 miles (0.40 km)
Ceiling: indefinite ceiling with vertical visibility of 200 feet AGL
Clouds: obscured sky
Weather: FG  (fog)

METAR text: KMSY 140653Z 00000KT 1/8SM FG VV002 10/09 A2984 RMK AO2 SLP106 T01000089 RVRNO
Conditions at: KMSY (NEW ORLEANS/INTL, LA, US) observed 0653 UTC 14 December 2019
Temperature: 10.0°C (50°F)
Dewpoint: 8.9°C (48°F) [RH = 93%]
Pressure (altimeter): 29.84 inches Hg (1010.6 mb)
[Sea-level pressure: 1010.6 mb]
Winds: calm
Visibility: 0.13 miles (0.21 km)
Ceiling: indefinite ceiling with vertical visibility of 200 feet AGL
Clouds: obscured sky
Weather: FG  (fog)

METAR text: KMSY 140553Z 00000KT 1/4SM FG VV002 10/09 A2984 RMK AO2 SLP107 T01000089 10144 20100 401500100 50005 RVRNO
Conditions at: KMSY (NEW ORLEANS/INTL, LA, US) observed 0553 UTC 14 December 2019
Temperature: 10.0°C (50°F)
Dewpoint: 8.9°C (48°F) [RH = 93%]
Pressure (altimeter): 29.84 inches Hg (1010.6 mb)
[Sea-level pressure: 1010.7 mb]
Winds: calm
Visibility: 0.25 miles (0.40 km)
Ceiling: indefinite ceiling with vertical visibility of 200 feet AGL
Clouds: obscured sky
Weather: FG  (fog)

METAR text: KMSY 140453Z 00000KT 1/4SM FG BKN002 11/09 A2984 RMK AO2 SLP107 T01060094 RVRNO
Conditions at: KMSY (NEW ORLEANS/INTL, LA, US) observed 0453 UTC 14 December 2019
Temperature: 10.6°C (51°F)
Dewpoint: 9.4°C (49°F) [RH = 92%]
Pressure (altimeter): 29.84 inches Hg (1010.6 mb)
[Sea-level pressure: 1010.7 mb]
Winds: calm
Visibility: 0.25 miles (0.40 km)
Ceiling: 200 feet AGL
Clouds: broken clouds at 200 feet AGL
Weather: FG  (fog)

METAR text: KMSY 140442Z 00000KT 1/2SM FG BKN001 11/10 A2984 RMK AO2 T01110100 RVRNO
Conditions at: KMSY (NEW ORLEANS/INTL, LA, US) observed 0442 UTC 14 December 2019
Temperature: 11.1°C (52°F)
Dewpoint: 10.0°C (50°F) [RH = 93%]
Pressure (altimeter): 29.84 inches Hg (1010.6 mb)
Winds: calm
Visibility: 0.50 miles (0.80 km)
Ceiling: 100 feet AGL
Clouds: broken clouds at 100 feet AGL
Weather: FG  (fog)

METAR text: KMSY 140353Z 00000KT 1/4SM FG VV001 11/10 A2984 RMK AO2 SLP106 T01110100 RVRNO
Conditions at: KMSY (NEW ORLEANS/INTL, LA, US) observed 0353 UTC 14 December 2019
Temperature: 11.1°C (52°F)
Dewpoint: 10.0°C (50°F) [RH = 93%]
Pressure (altimeter): 29.84 inches Hg (1010.6 mb)
[Sea-level pressure: 1010.6 mb]
Winds: calm
Visibility: 0.25 miles (0.40 km)
Ceiling: indefinite ceiling with vertical visibility of 100 feet AGL
Clouds: obscured sky
Weather: FG  (fog)

METAR text: KMSY 140340Z 00000KT 1/4SM FG VV001 11/09 A2984 RMK AO2 T01060094 RVRNO
Conditions at: KMSY (NEW ORLEANS/INTL, LA, US) observed 0340 UTC 14 December 2019
Temperature: 10.6°C (51°F)
Dewpoint: 9.4°C (49°F) [RH = 92%]
Pressure (altimeter): 29.84 inches Hg (1010.6 mb)
Winds: calm
Visibility: 0.25 miles (0.40 km)
Ceiling: indefinite ceiling with vertical visibility of 100 feet AGL
Clouds: obscured sky
Weather: FG  (fog)

METAR text: KMSY 140332Z 00000KT 1/2SM FG BKN002 11/10 A2984 RMK AO2 VIS NW-N 1/4 T01060100 RVRNO
Conditions at: KMSY (NEW ORLEANS/INTL, LA, US) observed 0332 UTC 14 December 2019
Temperature: 10.6°C (51°F)
Dewpoint: 10.0°C (50°F) [RH = 96%]
Pressure (altimeter): 29.84 inches Hg (1010.6 mb)
Winds: calm
Visibility: 0.50 miles (0.80 km)
Ceiling: 200 feet AGL
Clouds: broken clouds at 200 feet AGL
Weather: FG  (fog)

METAR text: KMSY 140329Z 00000KT 1SM BR BKN002 11/10 A2983 RMK AO2 VIS NW-N 1/4 T01110100 RVRNO
Conditions at: KMSY (NEW ORLEANS/INTL, LA, US) observed 0329 UTC 14 December 2019
Temperature: 11.1°C (52°F)
Dewpoint: 10.0°C (50°F) [RH = 93%]
Pressure (altimeter): 29.83 inches Hg (1010.2 mb)
Winds: calm
Visibility: 1.00 miles (1.61 km)
Ceiling: 200 feet AGL
Clouds: broken clouds at 200 feet AGL
Weather: BR  (mist)

METAR text: KMSY 140311Z 00000KT 3SM BR SCT002 11/09 A2983 RMK AO2 T01060094
Conditions at: KMSY (NEW ORLEANS/INTL, LA, US) observed 0311 UTC 14 December 2019
Temperature: 10.6°C (51°F)
Dewpoint: 9.4°C (49°F) [RH = 92%]
Pressure (altimeter): 29.83 inches Hg (1010.2 mb)
Winds: calm
Visibility: 3 miles ( 5 km)
Ceiling: at least 12,000 feet AGL
Clouds: scattered clouds at 200 feet AGL
Weather: BR  (mist)

METAR text: KMSY 140253Z 00000KT 1/2SM FG BKN002 11/09 A2982 RMK AO2 SLP101 T01110094 56002 RVRNO
Conditions at: KMSY (NEW ORLEANS/INTL, LA, US) observed 0253 UTC 14 December 2019
Temperature: 11.1°C (52°F)
Dewpoint: 9.4°C (49°F) [RH = 89%]
Pressure (altimeter): 29.82 inches Hg (1009.9 mb)
[Sea-level pressure: 1010.1 mb]
Winds: calm
Visibility: 0.50 miles (0.80 km)
Ceiling: 200 feet AGL
Clouds: broken clouds at 200 feet AGL
Weather: FG  (fog)

METAR text: KMSY 140250Z 00000KT 3/4SM BR BKN002 BKN080 11/09 A2982 RMK AO2 RVRNO
Conditions at: KMSY (NEW ORLEANS/INTL, LA, US) observed 0250 UTC 14 December 2019
Temperature: 11.0°C (52°F)
Dewpoint: 9.0°C (48°F) [RH = 87%]
Pressure (altimeter): 29.82 inches Hg (1009.9 mb)
Winds: calm
Visibility: 0.75 miles (1.21 km)
Ceiling: 200 feet AGL
Clouds: broken clouds at 200 feet AGL
broken clouds at 8000 feet AGL
Weather: BR  (mist)

METAR text: KMSY 140240Z 00000KT 1 1/2SM BR BKN002 BKN080 11/10 A2982 RMK AO2 T01110100
Conditions at: KMSY (NEW ORLEANS/INTL, LA, US) observed 0240 UTC 14 December 2019
Temperature: 11.1°C (52°F)
Dewpoint: 10.0°C (50°F) [RH = 93%]
Pressure (altimeter): 29.82 inches Hg (1009.9 mb)
Winds: calm
Visibility: 1.50 miles (2.41 km)
Ceiling: 200 feet AGL
Clouds: broken clouds at 200 feet AGL
broken clouds at 8000 feet AGL
Weather: BR  (mist)

METAR text: KMSY 140223Z 00000KT 4SM BR SCT002 SCT080 12/11 A2982 RMK AO2 VIS S-SW 1 3/4 T01220106
Conditions at: KMSY (NEW ORLEANS/INTL, LA, US) observed 0223 UTC 14 December 2019
Temperature: 12.2°C (54°F)
Dewpoint: 10.6°C (51°F) [RH = 90%]
Pressure (altimeter): 29.82 inches Hg (1009.9 mb)
Winds: calm
Visibility: 4 miles ( 6 km)
Ceiling: at least 12,000 feet AGL
Clouds: scattered clouds at 200 feet AGL
scattered clouds at 8000 feet AGL
Weather: BR  (mist)

METAR text: KMSY 140153Z 00000KT 5SM BR MIFG SCT003 SCT024 SCT080 12/11 A2983 RMK AO2 SLP103 T01170106
Conditions at: KMSY (NEW ORLEANS/INTL, LA, US) observed 0153 UTC 14 December 2019
Temperature: 11.7°C (53°F)
Dewpoint: 10.6°C (51°F) [RH = 93%]
Pressure (altimeter): 29.83 inches Hg (1010.2 mb)
[Sea-level pressure: 1010.3 mb]
Winds: calm
Visibility: 5 miles ( 8 km)
Ceiling: at least 12,000 feet AGL
Clouds: scattered clouds at 300 feet AGL
scattered clouds at 2400 feet AGL
scattered clouds at 8000 feet AGL
Weather: BR MIFG  (mist, shallow fog)

METAR text: KMSY 140126Z 00000KT 5SM BR MIFG SCT002 12/11 A2983 RMK AO2 T01220106
Conditions at: KMSY (NEW ORLEANS/INTL, LA, US) observed 0126 UTC 14 December 2019
Temperature: 12.2°C (54°F)
Dewpoint: 10.6°C (51°F) [RH = 90%]
Pressure (altimeter): 29.83 inches Hg (1010.2 mb)
Winds: calm
Visibility: 5 miles ( 8 km)
Ceiling: at least 12,000 feet AGL
Clouds: scattered clouds at 200 feet AGL
Weather: BR MIFG  (mist, shallow fog)

METAR text: KMSY 140053Z 00000KT 6SM BR FEW005 FEW023 FEW095 13/12 A2981 RMK AO2 SLP098 T01330122
Conditions at: KMSY (NEW ORLEANS/INTL, LA, US) observed 0053 UTC 14 December 2019
Temperature: 13.3°C (56°F)
Dewpoint: 12.2°C (54°F) [RH = 93%]
Pressure (altimeter): 29.81 inches Hg (1009.6 mb)
[Sea-level pressure: 1009.8 mb]
Winds: calm
Visibility: 6 miles (10 km)
Ceiling: at least 12,000 feet AGL
Clouds: few clouds at 500 feet AGL
few clouds at 2300 feet AGL
few clouds at 9500 feet AGL
Weather: BR  (mist)

METAR text: KMSY 140012Z 00000KT 6SM BR FEW003 SCT025 BKN055 14/13 A2982 RMK AO2 T01390128
Conditions at: KMSY (NEW ORLEANS/INTL, LA, US) observed 0012 UTC 14 December 2019
Temperature: 13.9°C (57°F)
Dewpoint: 12.8°C (55°F) [RH = 93%]
Pressure (altimeter): 29.82 inches Hg (1009.9 mb)
Winds: calm
Visibility: 6 miles (10 km)
Ceiling: 5500 feet AGL
Clouds: few clouds at 300 feet AGL
scattered clouds at 2500 feet AGL
broken clouds at 5500 feet AGL
Weather: BR  (mist)

METAR text: KMSY 140004Z 00000KT 6SM BR BKN026 BKN055 14/13 A2983 RMK AO2 T01390128
Conditions at: KMSY (NEW ORLEANS/INTL, LA, US) observed 0004 UTC 14 December 2019
Temperature: 13.9°C (57°F)
Dewpoint: 12.8°C (55°F) [RH = 93%]
Pressure (altimeter): 29.83 inches Hg (1010.2 mb)
Winds: calm
Visibility: 6 miles (10 km)
Ceiling: 2600 feet AGL
Clouds: broken clouds at 2600 feet AGL
broken clouds at 5500 feet AGL
Weather: BR  (mist)

METAR text: KMSY 132353Z 00000KT 6SM BR FEW004 SCT024 BKN060 14/13 A2983 RMK AO2 SLP104 60000 T01440128 10150 20128 55003
Conditions at: KMSY (NEW ORLEANS/INTL, LA, US) observed 2353 UTC 13 December 2019
Temperature: 14.4°C (58°F)
Dewpoint: 12.8°C (55°F) [RH = 90%]
Pressure (altimeter): 29.83 inches Hg (1010.2 mb)
[Sea-level pressure: 1010.4 mb]
Winds: calm
Visibility: 6 miles (10 km)
Ceiling: 6000 feet AGL
Clouds: few clouds at 400 feet AGL
scattered clouds at 2400 feet AGL
broken clouds at 6000 feet AGL
Weather: BR  (mist)

METAR text: KMSY 132321Z 29003KT 4SM BR SCT004 OVC022 14/13 A2982 RMK AO2 T01440133
Conditions at: KMSY (NEW ORLEANS/INTL, LA, US) observed 2321 UTC 13 December 2019
Temperature: 14.4°C (58°F)
Dewpoint: 13.3°C (56°F) [RH = 93%]
Pressure (altimeter): 29.82 inches Hg (1009.9 mb)
Winds: from the WNW (290 degrees) at 3 MPH (3 knots; 1.5 m/s)
Visibility: 4 miles ( 6 km)
Ceiling: 2200 feet AGL
Clouds: scattered clouds at 400 feet AGL
overcast cloud deck at 2200 feet AGL
Weather: BR  (mist)

METAR text: KMSY 132253Z 00000KT 1SM BR BKN003 OVC020 15/13 A2983 RMK AO2 SFC VIS 2 1/2 SLP103 BKN V OVC T01500133
Conditions at: KMSY (NEW ORLEANS/INTL, LA, US) observed 2253 UTC 13 December 2019
Temperature: 15.0°C (59°F)
Dewpoint: 13.3°C (56°F) [RH = 90%]
Pressure (altimeter): 29.83 inches Hg (1010.2 mb)
[Sea-level pressure: 1010.3 mb]
Winds: calm
Visibility: 1.00 miles (1.61 km)
Ceiling: 300 feet AGL
Clouds: broken clouds at 300 feet AGL
overcast cloud deck at 2000 feet AGL
Weather: BR  (mist)

METAR text: KMSY 132208Z 35004KT 1/2SM BR OVC003 14/13 A2983 RMK AO2 SFC VIS 3 T01440128
Conditions at: KMSY (NEW ORLEANS/INTL, LA, US) observed 2208 UTC 13 December 2019
Temperature: 14.4°C (58°F)
Dewpoint: 12.8°C (55°F) [RH = 90%]
Pressure (altimeter): 29.83 inches Hg (1010.2 mb)
Winds: from the N (350 degrees) at 5 MPH (4 knots; 2.1 m/s)
Visibility: 0.50 miles (0.80 km)
Ceiling: 300 feet AGL
Clouds: overcast cloud deck at 300 feet AGL
Weather: BR  (mist)

METAR text: KMSY 132153Z 33004KT 5SM BR OVC004 14/13 A2983 RMK AO2 SLP103 T01440128
Conditions at: KMSY (NEW ORLEANS/INTL, LA, US) observed 2153 UTC 13 December 2019
Temperature: 14.4°C (58°F)
Dewpoint: 12.8°C (55°F) [RH = 90%]
Pressure (altimeter): 29.83 inches Hg (1010.2 mb)
[Sea-level pressure: 1010.3 mb]
Winds: from the NNW (330 degrees) at 5 MPH (4 knots; 2.1 m/s)
Visibility: 5 miles ( 8 km)
Ceiling: 400 feet AGL
Clouds: overcast cloud deck at 400 feet AGL
Weather: BR  (mist)

METAR text: KMSY 132053Z 34005KT 7SM OVC004 14/13 A2984 RMK AO2 SLP107 60000 T01440128 56028
Conditions at: KMSY (NEW ORLEANS/INTL, LA, US) observed 2053 UTC 13 December 2019
Temperature: 14.4°C (58°F)
Dewpoint: 12.8°C (55°F) [RH = 90%]
Pressure (altimeter): 29.84 inches Hg (1010.6 mb)
[Sea-level pressure: 1010.7 mb]
Winds: from the NNW (340 degrees) at 6 MPH (5 knots; 2.6 m/s)
Visibility: 7 miles (11 km)
Ceiling: 400 feet AGL
Clouds: overcast cloud deck at 400 feet AGL
Weather: no significant weather observed at this time

METAR text: KMSY 132034Z 34005KT 8SM OVC004 14/13 A2984 RMK AO2 T01390128
Conditions at: KMSY (NEW ORLEANS/INTL, LA, US) observed 2034 UTC 13 December 2019
Temperature: 13.9°C (57°F)
Dewpoint: 12.8°C (55°F) [RH = 93%]
Pressure (altimeter): 29.84 inches Hg (1010.6 mb)
Winds: from the NNW (340 degrees) at 6 MPH (5 knots; 2.6 m/s)
Visibility: 8 miles (13 km)
Ceiling: 400 feet AGL
Clouds: overcast cloud deck at 400 feet AGL
Weather: no significant weather observed at this time

METAR text: KMSY 132019Z 02003KT 1 1/2SM BR OVC003 14/13 A2984 RMK AO2 SFC VIS 6 T01390128
Conditions at: KMSY (NEW ORLEANS/INTL, LA, US) observed 2019 UTC 13 December 2019
Temperature: 13.9°C (57°F)
Dewpoint: 12.8°C (55°F) [RH = 93%]
Pressure (altimeter): 29.84 inches Hg (1010.6 mb)
Winds: from the NNE (20 degrees) at 3 MPH (3 knots; 1.5 m/s)
Visibility: 1.50 miles (2.41 km)
Ceiling: 300 feet AGL
Clouds: overcast cloud deck at 300 feet AGL
Weather: BR  (mist)

METAR text: KMSY 132002Z 36003KT 1SM BR OVC003 14/12 A2986 RMK AO2 SFC VIS 1 1/2 T01390122
Conditions at: KMSY (NEW ORLEANS/INTL, LA, US) observed 2002 UTC 13 December 2019
Temperature: 13.9°C (57°F)
Dewpoint: 12.2°C (54°F) [RH = 89%]
Pressure (altimeter): 29.86 inches Hg (1011.3 mb)
Winds: from the N (360 degrees) at 3 MPH (3 knots; 1.5 m/s)
Visibility: 1.00 miles (1.61 km)
Ceiling: 300 feet AGL
Clouds: overcast cloud deck at 300 feet AGL
Weather: BR  (mist)

METAR text: KMSY 131953Z 35004KT 1/8SM BR OVC003 13/12 A2986 RMK AO2 SFC VIS 1 1/2 SLP114 T01330122
Conditions at: KMSY (NEW ORLEANS/INTL, LA, US) observed 1953 UTC 13 December 2019
Temperature: 13.3°C (56°F)
Dewpoint: 12.2°C (54°F) [RH = 93%]
Pressure (altimeter): 29.86 inches Hg (1011.3 mb)
[Sea-level pressure: 1011.4 mb]
Winds: from the N (350 degrees) at 5 MPH (4 knots; 2.1 m/s)
Visibility: 0.13 miles (0.21 km)
Ceiling: 300 feet AGL
Clouds: overcast cloud deck at 300 feet AGL
Weather: BR  (mist)

METAR text: KMSY 131853Z 35005KT 1/8SM BR OVC002 13/12 A2988 RMK AO2 SFC VIS 1 1/4 RAE07 SLP122 P0000 T01280117
Conditions at: KMSY (NEW ORLEANS/INTL, LA, US) observed 1853 UTC 13 December 2019
Temperature: 12.8°C (55°F)
Dewpoint: 11.7°C (53°F) [RH = 93%]
Pressure (altimeter): 29.88 inches Hg (1011.9 mb)
[Sea-level pressure: 1012.2 mb]
Winds: from the N (350 degrees) at 6 MPH (5 knots; 2.6 m/s)
Visibility: 0.13 miles (0.21 km)
Ceiling: 200 feet AGL
Clouds: overcast cloud deck at 200 feet AGL
Weather: BR  (mist)

METAR text: KMSY 131753Z 34005KT 1/8SM RA FG OVC002 13/12 A2992 RMK AO2 SFC VIS 1/2 RAB21E33B49 SLP135 P0001 60001 T01330117 10133 20117 58022 RVRNO
Conditions at: KMSY (NEW ORLEANS/INTL, LA, US) observed 1753 UTC 13 December 2019
Temperature: 13.3°C (56°F)
Dewpoint: 11.7°C (53°F) [RH = 90%]
Pressure (altimeter): 29.92 inches Hg (1013.3 mb)
[Sea-level pressure: 1013.5 mb]
Winds: from the NNW (340 degrees) at 6 MPH (5 knots; 2.6 m/s)
Visibility: 0.13 miles (0.21 km)
Ceiling: 200 feet AGL
Clouds: overcast cloud deck at 200 feet AGL
Weather: RA FG  (moderate rain, fog)

METAR text: KMSY 131729Z 02003KT 1/16SM -RA FG OVC002 13/12 A2994 RMK AO2 SFC VIS 1/4 RAB21 P0000 T01330122 RVRNO
Conditions at: KMSY (NEW ORLEANS/INTL, LA, US) observed 1729 UTC 13 December 2019
Temperature: 13.3°C (56°F)
Dewpoint: 12.2°C (54°F) [RH = 93%]
Pressure (altimeter): 29.94 inches Hg (1014.0 mb)
Winds: from the NNE (20 degrees) at 3 MPH (3 knots; 1.5 m/s)
Visibility: 0.06 miles (0.10 km)
Ceiling: 200 feet AGL
Clouds: overcast cloud deck at 200 feet AGL
Weather: -RA FG  (light rain, fog)

METAR text: KMSY 131553Z 03005KT 1/16SM FG VV002 13/12 A2998 RMK AO2 SFC VIS 1/8 SLP154 T01280117 RVRNO
Conditions at: KMSY (NEW ORLEANS/INTL, LA, US) observed 1553 UTC 13 December 2019
Temperature: 12.8°C (55°F)
Dewpoint: 11.7°C (53°F) [RH = 93%]
Pressure (altimeter): 29.98 inches Hg (1015.3 mb)
[Sea-level pressure: 1015.4 mb]
Winds: from the NNE (30 degrees) at 6 MPH (5 knots; 2.6 m/s)
Visibility: 0.06 miles (0.10 km)
Ceiling: indefinite ceiling with vertical visibility of 200 feet AGL
Clouds: obscured sky
Weather: FG  (fog)

METAR text: KMSY 131453Z 06004KT 1/16SM FG VV002 13/12 A2999 RMK AO2 SFC VIS 1/8 SLP156 T01280117 58001 RVRNO
Conditions at: KMSY (NEW ORLEANS/INTL, LA, US) observed 1453 UTC 13 December 2019
Temperature: 12.8°C (55°F)
Dewpoint: 11.7°C (53°F) [RH = 93%]
Pressure (altimeter): 29.99 inches Hg (1015.7 mb)
[Sea-level pressure: 1015.6 mb]
Winds: from the ENE (60 degrees) at 5 MPH (4 knots; 2.1 m/s)
Visibility: 0.06 miles (0.10 km)
Ceiling: indefinite ceiling with vertical visibility of 200 feet AGL
Clouds: obscured sky
Weather: FG  (fog)

METAR text: KMSY 131353Z 08005KT 1/8SM FG VV002 12/12 A3000 RMK AO2 SLP160 T01220117 RVRNO
Conditions at: KMSY (NEW ORLEANS/INTL, LA, US) observed 1353 UTC 13 December 2019
Temperature: 12.2°C (54°F)
Dewpoint: 11.7°C (53°F) [RH = 97%]
Pressure (altimeter): 30.00 inches Hg (1016.0 mb)
[Sea-level pressure: 1016.0 mb]
Winds: from the E (80 degrees) at 6 MPH (5 knots; 2.6 m/s)
Visibility: 0.13 miles (0.21 km)
Ceiling: indefinite ceiling with vertical visibility of 200 feet AGL
Clouds: obscured sky
Weather: FG  (fog)

METAR text: KMSY 131253Z 06005KT 1/8SM FG VV002 12/11 A3000 RMK AO2 SLP161 T01220111 RVRNO
Conditions at: KMSY (NEW ORLEANS/INTL, LA, US) observed 1253 UTC 13 December 2019
Temperature: 12.2°C (54°F)
Dewpoint: 11.1°C (52°F) [RH = 93%]
Pressure (altimeter): 30.00 inches Hg (1016.0 mb)
[Sea-level pressure: 1016.1 mb]
Winds: from the ENE (60 degrees) at 6 MPH (5 knots; 2.6 m/s)
Visibility: 0.13 miles (0.21 km)
Ceiling: indefinite ceiling with vertical visibility of 200 feet AGL
Clouds: obscured sky
Weather: FG  (fog)

METAR text: KMSY 131153Z 04004KT 1/8SM FG VV002 12/11 A2999 RMK AO2 SFC VIS 1/4 SLP158 T01170106 10117 20117 56022 RVRNO
Conditions at: KMSY (NEW ORLEANS/INTL, LA, US) observed 1153 UTC 13 December 2019
Temperature: 11.7°C (53°F)
Dewpoint: 10.6°C (51°F) [RH = 93%]
Pressure (altimeter): 29.99 inches Hg (1015.7 mb)
[Sea-level pressure: 1015.8 mb]
Winds: from the NE (40 degrees) at 5 MPH (4 knots; 2.1 m/s)
Visibility: 0.13 miles (0.21 km)
Ceiling: indefinite ceiling with vertical visibility of 200 feet AGL
Clouds: obscured sky
Weather: FG  (fog)

METAR text: KMSY 131119Z 06004KT 1/8SM FG VV002 12/11 A2999 RMK AO2 SFC VIS 1/2 T01170106 RVRNO
Conditions at: KMSY (NEW ORLEANS/INTL, LA, US) observed 1119 UTC 13 December 2019
Temperature: 11.7°C (53°F)
Dewpoint: 10.6°C (51°F) [RH = 93%]
Pressure (altimeter): 29.99 inches Hg (1015.7 mb)
Winds: from the ENE (60 degrees) at 5 MPH (4 knots; 2.1 m/s)
Visibility: 0.13 miles (0.21 km)
Ceiling: indefinite ceiling with vertical visibility of 200 feet AGL
Clouds: obscured sky
Weather: FG  (fog)

METAR text: KMSY 131053Z 09005KT 1/4SM BR VV003 12/11 A3000 RMK AO2 SFC VIS 3/4 SLP162 T01170106 RVRNO
Conditions at: KMSY (NEW ORLEANS/INTL, LA, US) observed 1053 UTC 13 December 2019
Temperature: 11.7°C (53°F)
Dewpoint: 10.6°C (51°F) [RH = 93%]
Pressure (altimeter): 30.00 inches Hg (1016.0 mb)
[Sea-level pressure: 1016.2 mb]
Winds: from the E (90 degrees) at 6 MPH (5 knots; 2.6 m/s)
Visibility: 0.25 miles (0.40 km)
Ceiling: indefinite ceiling with vertical visibility of 300 feet AGL
Clouds: obscured sky
Weather: BR  (mist)

METAR text: KMSY 131037Z 07003KT 1/4SM BR VV003 12/11 A3001 RMK AO2 SFC VIS 3/4 T01170106 RVRNO
Conditions at: KMSY (NEW ORLEANS/INTL, LA, US) observed 1037 UTC 13 December 2019
Temperature: 11.7°C (53°F)
Dewpoint: 10.6°C (51°F) [RH = 93%]
Pressure (altimeter): 30.01 inches Hg (1016.3 mb)
Winds: from the ENE (70 degrees) at 3 MPH (3 knots; 1.5 m/s)
Visibility: 0.25 miles (0.40 km)
Ceiling: indefinite ceiling with vertical visibility of 300 feet AGL
Clouds: obscured sky
Weather: BR  (mist)

METAR text: KMSY 130953Z 07005KT 1/4SM BR OVC002 12/11 A3003 RMK AO2 SFC VIS 2 SLP172 T01170106
Conditions at: KMSY (NEW ORLEANS/INTL, LA, US) observed 0953 UTC 13 December 2019
Temperature: 11.7°C (53°F)
Dewpoint: 10.6°C (51°F) [RH = 93%]
Pressure (altimeter): 30.03 inches Hg (1017.0 mb)
[Sea-level pressure: 1017.2 mb]
Winds: from the ENE (70 degrees) at 6 MPH (5 knots; 2.6 m/s)
Visibility: 0.25 miles (0.40 km)
Ceiling: 200 feet AGL
Clouds: overcast cloud deck at 200 feet AGL
Weather: BR  (mist)

METAR text: KMSY 130928Z 08006KT 1/4SM BR OVC002 12/11 A3003 RMK AO2 SFC VIS 3 T01170106
Conditions at: KMSY (NEW ORLEANS/INTL, LA, US) observed 0928 UTC 13 December 2019
Temperature: 11.7°C (53°F)
Dewpoint: 10.6°C (51°F) [RH = 93%]
Pressure (altimeter): 30.03 inches Hg (1017.0 mb)
Winds: from the E (80 degrees) at 7 MPH (6 knots; 3.1 m/s)
Visibility: 0.25 miles (0.40 km)
Ceiling: 200 feet AGL
Clouds: overcast cloud deck at 200 feet AGL
Weather: BR  (mist)

METAR text: KMSY 130903Z 07007KT 1/4SM OVC003 12/10 A3004 RMK AO2 SFC VIS 7 T01170100
Conditions at: KMSY (NEW ORLEANS/INTL, LA, US) observed 0903 UTC 13 December 2019
Temperature: 11.7°C (53°F)
Dewpoint: 10.0°C (50°F) [RH = 89%]
Pressure (altimeter): 30.04 inches Hg (1017.4 mb)
Winds: from the ENE (70 degrees) at 8 MPH (7 knots; 3.6 m/s)
Visibility: 0.25 miles (0.40 km)
Ceiling: 300 feet AGL
Clouds: overcast cloud deck at 300 feet AGL
Weather: no significant weather observed at this time

METAR text: KMSY 130853Z 07006KT 6SM BR OVC003 12/10 A3005 RMK AO2 SLP180 T01170100 56012
Conditions at: KMSY (NEW ORLEANS/INTL, LA, US) observed 0853 UTC 13 December 2019
Temperature: 11.7°C (53°F)
Dewpoint: 10.0°C (50°F) [RH = 89%]
Pressure (altimeter): 30.05 inches Hg (1017.7 mb)
[Sea-level pressure: 1018.0 mb]
Winds: from the ENE (70 degrees) at 7 MPH (6 knots; 3.1 m/s)
Visibility: 6 miles (10 km)
Ceiling: 300 feet AGL
Clouds: overcast cloud deck at 300 feet AGL
Weather: BR  (mist)

METAR text: KMSY 130848Z 06006KT 2SM BR OVC003 12/10 A3006 RMK AO2
Conditions at: KMSY (NEW ORLEANS/INTL, LA, US) observed 0848 UTC 13 December 2019
Temperature: 12.0°C (54°F)
Dewpoint: 10.0°C (50°F) [RH = 88%]
Pressure (altimeter): 30.06 inches Hg (1018.0 mb)
Winds: from the ENE (60 degrees) at 7 MPH (6 knots; 3.1 m/s)
Visibility: 2.00 miles (3.22 km)
Ceiling: 300 feet AGL
Clouds: overcast cloud deck at 300 feet AGL
Weather: BR  (mist)

METAR text: KMSY 130841Z 06007KT 1 3/4SM BR OVC003 12/10 A3006 RMK AO2 T01170100
Conditions at: KMSY (NEW ORLEANS/INTL, LA, US) observed 0841 UTC 13 December 2019
Temperature: 11.7°C (53°F)
Dewpoint: 10.0°C (50°F) [RH = 89%]
Pressure (altimeter): 30.06 inches Hg (1018.0 mb)
Winds: from the ENE (60 degrees) at 8 MPH (7 knots; 3.6 m/s)
Visibility: 1.75 miles (2.82 km)
Ceiling: 300 feet AGL
Clouds: overcast cloud deck at 300 feet AGL
Weather: BR  (mist)

METAR text: KMSY 130827Z 05006KT 2SM BR OVC004 12/10 A3006 RMK AO2 T01170100
Conditions at: KMSY (NEW ORLEANS/INTL, LA, US) observed 0827 UTC 13 December 2019
Temperature: 11.7°C (53°F)
Dewpoint: 10.0°C (50°F) [RH = 89%]
Pressure (altimeter): 30.06 inches Hg (1018.0 mb)
Winds: from the NE (50 degrees) at 7 MPH (6 knots; 3.1 m/s)
Visibility: 2.00 miles (3.22 km)
Ceiling: 400 feet AGL
Clouds: overcast cloud deck at 400 feet AGL
Weather: BR  (mist)

METAR text: KMSY 130753Z 06004KT 8SM OVC004 12/10 A3007 RMK AO2 SLP186 T01170100
Conditions at: KMSY (NEW ORLEANS/INTL, LA, US) observed 0753 UTC 13 December 2019
Temperature: 11.7°C (53°F)
Dewpoint: 10.0°C (50°F) [RH = 89%]
Pressure (altimeter): 30.07 inches Hg (1018.4 mb)
[Sea-level pressure: 1018.6 mb]
Winds: from the ENE (60 degrees) at 5 MPH (4 knots; 2.1 m/s)
Visibility: 8 miles (13 km)
Ceiling: 400 feet AGL
Clouds: overcast cloud deck at 400 feet AGL
Weather: no significant weather observed at this time

METAR text: KMSY 130745Z 06006KT 8SM OVC004 12/10 A3008 RMK AO2 T01170100
Conditions at: KMSY (NEW ORLEANS/INTL, LA, US) observed 0745 UTC 13 December 2019
Temperature: 11.7°C (53°F)
Dewpoint: 10.0°C (50°F) [RH = 89%]
Pressure (altimeter): 30.08 inches Hg (1018.7 mb)
Winds: from the ENE (60 degrees) at 7 MPH (6 knots; 3.1 m/s)
Visibility: 8 miles (13 km)
Ceiling: 400 feet AGL
Clouds: overcast cloud deck at 400 feet AGL
Weather: no significant weather observed at this time

METAR text: KMSY 130653Z 03007KT 10SM OVC005 12/09 A3009 RMK AO2 SLP192 T01170094
Conditions at: KMSY (NEW ORLEANS/INTL, LA, US) observed 0653 UTC 13 December 2019
Temperature: 11.7°C (53°F)
Dewpoint: 9.4°C (49°F) [RH = 86%]
Pressure (altimeter): 30.09 inches Hg (1019.0 mb)
[Sea-level pressure: 1019.2 mb]
Winds: from the NNE (30 degrees) at 8 MPH (7 knots; 3.6 m/s)
Visibility: 10 or more miles (16+ km)
Ceiling: 500 feet AGL
Clouds: overcast cloud deck at 500 feet AGL
Weather: no significant weather observed at this time

METAR text: KMSY 130553Z 02006KT 10SM OVC006 12/09 A3012 RMK AO2 SLP200 60000 T01170094 10122 20117 401280094 58016
Conditions at: KMSY (NEW ORLEANS/INTL, LA, US) observed 0553 UTC 13 December 2019
Temperature: 11.7°C (53°F)
Dewpoint: 9.4°C (49°F) [RH = 86%]
Pressure (altimeter): 30.12 inches Hg (1020.1 mb)
[Sea-level pressure: 1020.0 mb]
Winds: from the NNE (20 degrees) at 7 MPH (6 knots; 3.1 m/s)
Visibility: 10 or more miles (16+ km)
Ceiling: 600 feet AGL
Clouds: overcast cloud deck at 600 feet AGL
Weather: no significant weather observed at this time

METAR text: KMSY 130453Z 02006KT 10SM OVC007 12/09 A3014 RMK AO2 SLP210 T01220094
Conditions at: KMSY (NEW ORLEANS/INTL, LA, US) observed 0453 UTC 13 December 2019
Temperature: 12.2°C (54°F)
Dewpoint: 9.4°C (49°F) [RH = 83%]
Pressure (altimeter): 30.14 inches Hg (1020.7 mb)
[Sea-level pressure: 1021.0 mb]
Winds: from the NNE (20 degrees) at 7 MPH (6 knots; 3.1 m/s)
Visibility: 10 or more miles (16+ km)
Ceiling: 700 feet AGL
Clouds: overcast cloud deck at 700 feet AGL
Weather: no significant weather observed at this time

METAR text: KMSY 130353Z 06006KT 10SM OVC006 12/09 A3015 RMK AO2 DZE10 SLP211 P0000 T01220094
Conditions at: KMSY (NEW ORLEANS/INTL, LA, US) observed 0353 UTC 13 December 2019
Temperature: 12.2°C (54°F)
Dewpoint: 9.4°C (49°F) [RH = 83%]
Pressure (altimeter): 30.15 inches Hg (1021.1 mb)
[Sea-level pressure: 1021.1 mb]
Winds: from the ENE (60 degrees) at 7 MPH (6 knots; 3.1 m/s)
Visibility: 10 or more miles (16+ km)
Ceiling: 600 feet AGL
Clouds: overcast cloud deck at 600 feet AGL
Weather: no significant weather observed at this time

METAR text: KMSY 130253Z 04009KT 8SM -DZ OVC006 12/10 A3016 RMK AO2 RAB34E41DZB41 SLP216 P0000 60000 T01220100 55003
Conditions at: KMSY (NEW ORLEANS/INTL, LA, US) observed 0253 UTC 13 December 2019
Temperature: 12.2°C (54°F)
Dewpoint: 10.0°C (50°F) [RH = 86%]
Pressure (altimeter): 30.16 inches Hg (1021.4 mb)
[Sea-level pressure: 1021.6 mb]
Winds: from the NE (40 degrees) at 10 MPH (9 knots; 4.6 m/s)
Visibility: 8 miles (13 km)
Ceiling: 600 feet AGL
Clouds: overcast cloud deck at 600 feet AGL
Weather: -DZ  (light drizzle)

METAR text: KMSY 130153Z 04007KT 10SM OVC005 12/10 A3016 RMK AO2 SLP216 T01220100
Conditions at: KMSY (NEW ORLEANS/INTL, LA, US) observed 0153 UTC 13 December 2019
Temperature: 12.2°C (54°F)
Dewpoint: 10.0°C (50°F) [RH = 86%]
Pressure (altimeter): 30.16 inches Hg (1021.4 mb)
[Sea-level pressure: 1021.6 mb]
Winds: from the NE (40 degrees) at 8 MPH (7 knots; 3.6 m/s)
Visibility: 10 or more miles (16+ km)
Ceiling: 500 feet AGL
Clouds: overcast cloud deck at 500 feet AGL
Weather: no significant weather observed at this time

Forecast for: KMSY (NEW ORLEANS/INTL, LA, US)
Text: KMSY 141133Z 1412/1518 00000KT 1/4SM FG VV003
Forecast period: 1200 to 1600 UTC 14 December 2019
Forecast type: FROM: standard forecast or significant change
Winds: calm
Visibility: 0.25 miles (0.40 km)
Ceiling: indefinite ceiling with vertical visibility of 300 feet AGL
Clouds: obscured sky
Weather: FG  (fog)
Text: FM141600 22004KT P6SM BKN010
Forecast period: 1600 to 1800 UTC 14 December 2019
Forecast type: FROM: standard forecast or significant change
Winds: from the SW (220 degrees) at 5 MPH (4 knots; 2.1 m/s)
Visibility: 6 or more miles 10+ km)
Ceiling: 1000 feet AGL
Clouds: broken clouds at 1000 feet AGL
Weather: no significant weather forecast for this period
Text: FM141800 33006KT P6SM BKN200
Forecast period: 1800 UTC 14 December 2019 to 0300 UTC 15 December 2019
Forecast type: FROM: standard forecast or significant change
Winds: from the NNW (330 degrees) at 7 MPH (6 knots; 3.1 m/s)
Visibility: 6 or more miles 10+ km)
Ceiling: 20000 feet AGL
Clouds: broken clouds at 20000 feet AGL
Weather: no significant weather forecast for this period
Text: FM150300 VRB03KT 1/4SM FG BKN250
Forecast period: 0300 to 1500 UTC 15 December 2019
Forecast type: FROM: standard forecast or significant change
Winds: variable direction winds at 3 MPH (3 knots; 1.5 m/s)
Visibility: 0.25 miles (0.40 km)
Ceiling: 25000 feet AGL
Clouds: broken clouds at 25000 feet AGL
Weather: FG  (fog)
Text: FM151500 16008KT P6SM SCT250
Forecast period: 1500 to 1800 UTC 15 December 2019
Forecast type: FROM: standard forecast or significant change
Winds: from the SSE (160 degrees) at 9 MPH (8 knots; 4.1 m/s)
Visibility: 6 or more miles 10+ km)
Ceiling: at least 12,000 feet AGL
Clouds: scattered clouds at 25000 feet AGL
Weather: no significant weather forecast for this period